Time;durP1;ratioP1;P1;durP2;ratioP2;P2;SDS_P1;SDS_P2;PMS_P1;PMS_P2;Temp;Humidity;BMP_temperature;BMP_pressure;BME280_temperature;BME280_humidity;BME280_pressure;Samples;Min_cycle;Max_cycle;Signal;HPM_P1;HPM_P2
2022/07/28 00:01:20;;;;;;;2.83;0.70;;;18.60;99.90;;;;;;5093791;28;20656;-69
2022/07/28 00:03:47;;;;;;;1.17;0.53;;;18.80;99.90;;;;;;5093533;28;20202;-69
2022/07/28 00:06:15;;;;;;;0.67;0.50;;;18.90;99.90;;;;;;5093597;28;20192;-69
2022/07/28 00:08:43;;;;;;;1.47;0.80;;;18.50;99.90;;;;;;5093478;28;20187;-70
2022/07/28 00:11:11;;;;;;;0.50;0.50;;;18.40;99.90;;;;;;5096250;28;20209;-71
2022/07/28 00:13:38;;;;;;;0.40;0.40;;;18.90;99.90;;;;;;5096027;28;20179;-70
2022/07/28 00:16:06;;;;;;;1.37;0.40;;;19.10;99.90;;;;;;5113881;28;20691;-70
2022/07/28 00:18:34;;;;;;;0.40;0.40;;;19.00;99.90;;;;;;5112799;28;20176;-70
2022/07/28 00:21:02;;;;;;;0.40;0.40;;;19.30;99.90;;;;;;5098339;28;20196;-69
2022/07/28 00:23:29;;;;;;;1.20;0.40;;;19.10;99.90;;;;;;5106439;28;20194;-69
2022/07/28 00:25:57;;;;;;;1.70;0.70;;;18.90;99.90;;;;;;5113681;28;20167;-69
2022/07/28 00:28:25;;;;;;;0.70;0.60;;;18.50;99.90;;;;;;5113536;28;20174;-69
2022/07/28 00:30:54;;;;;;;1.00;0.50;;;19.00;99.90;;;;;;5113069;28;20315;-69
2022/07/28 00:33:22;;;;;;;0.50;0.37;;;19.70;99.90;;;;;;5111796;28;20200;-70
2022/07/28 00:35:49;;;;;;;0.30;0.30;;;19.90;99.90;;;;;;5113491;28;20225;-70
2022/07/28 00:38:17;;;;;;;0.43;0.43;;;19.70;99.90;;;;;;5110335;28;20640;-69
2022/07/28 00:43:30;;;;;;;2.77;0.60;;;19.80;99.90;;;;;;5092898;28;20189;-69
2022/07/28 00:45:58;;;;;;;1.37;0.50;;;20.10;99.90;;;;;;5092790;28;20192;-69
2022/07/28 00:48:26;;;;;;;1.00;0.40;;;20.10;99.90;;;;;;5092665;28;20180;-70
2022/07/28 00:50:54;;;;;;;0.77;0.50;;;20.20;99.90;;;;;;5092804;28;20259;-69
2022/07/28 00:53:23;;;;;;;0.80;0.40;;;20.40;99.90;;;;;;5092768;28;20964;-67
2022/07/28 00:55:51;;;;;;;2.10;0.40;;;20.20;99.90;;;;;;5092727;28;20207;-67
2022/07/28 00:58:19;;;;;;;2.17;0.63;;;19.90;99.90;;;;;;5092397;28;20634;-68
2022/07/28 01:00:46;;;;;;;0.80;0.40;;;20.30;99.90;;;;;;5090445;28;21023;-69
2022/07/28 01:03:14;;;;;;;1.23;0.40;;;20.40;99.90;;;;;;5095194;28;20621;-69
2022/07/28 01:06:06;;;;;;;2.10;0.40;;;20.10;99.90;;;;;;5103019;28;20179;-70
2022/07/28 01:08:54;;;;;;;1.43;0.60;;;20.40;99.90;;;;;;5110329;28;20182;-68
2022/07/28 01:11:36;;;;;;;0.60;0.50;;;20.50;99.90;;;;;;5105560;28;20726;-69
2022/07/28 01:14:23;;;;;;;0.80;0.50;;;20.60;99.90;;;;;;5092367;28;20187;-70
2022/07/28 01:17:23;;;;;;;0.67;0.40;;;20.90;99.90;;;;;;5099787;28;20211;-70
2022/07/28 01:20:17;;;;;;;2.80;0.60;;;20.80;99.90;;;;;;5105536;27;20208;-71
2022/07/28 01:23:13;;;;;;;0.40;0.40;;;20.80;99.90;;;;;;5118270;27;20190;-70
2022/07/28 01:26:12;;;;;;;0.63;0.30;;;21.20;99.90;;;;;;5092074;28;20230;-71
2022/07/28 01:29:01;;;;;;;1.40;0.43;;;21.50;99.90;;;;;;5096041;28;20167;-71
2022/07/28 01:31:37;;;;;;;1.57;0.50;;;21.30;99.90;;;;;;5091642;28;20243;-70
2022/07/28 01:34:16;;;;;;;1.13;0.50;;;21.60;99.90;;;;;;5086193;28;20299;-70
2022/07/28 01:36:52;;;;;;;0.87;0.43;;;21.10;99.90;;;;;;5092070;28;20232;-71
2022/07/28 01:39:22;;;;;;;0.67;0.47;;;21.40;99.90;;;;;;5091801;28;20235;-70
2022/07/28 01:41:52;;;;;;;0.30;0.30;;;21.50;99.90;;;;;;5091958;28;20575;-72
2022/07/28 01:44:24;;;;;;;0.90;0.40;;;21.90;98.20;;;;;;5091519;28;20264;-70
2022/07/28 01:46:53;;;;;;;1.00;0.30;;;21.70;98.40;;;;;;5094124;28;20323;-71
2022/07/28 01:49:23;;;;;;;1.90;0.40;;;21.50;97.00;;;;;;5071548;28;20185;-71
2022/07/28 01:51:52;;;;;;;0.63;0.40;;;21.50;97.80;;;;;;5071500;28;20547;-71
2022/07/28 01:54:23;;;;;;;0.40;0.33;;;21.50;99.80;;;;;;5071577;28;20584;-70
2022/07/28 01:56:54;;;;;;;0.90;0.57;;;21.70;98.80;;;;;;5053309;28;20269;-70
2022/07/28 01:59:24;;;;;;;0.50;0.40;;;22.20;98.60;;;;;;5053596;28;20175;-70
2022/07/28 02:01:53;;;;;;;0.40;0.30;;;21.60;98.40;;;;;;5071560;28;20636;-70
2022/07/28 02:04:22;;;;;;;0.63;0.33;;;21.60;98.30;;;;;;5071398;28;20205;-71
2022/07/28 02:06:53;;;;;;;0.40;0.40;;;21.90;95.90;;;;;;5053342;28;20182;-71
2022/07/28 02:09:22;;;;;;;0.50;0.40;;;21.90;97.60;;;;;;5071359;28;20172;-70
2022/07/28 02:11:53;;;;;;;1.33;0.40;;;22.10;97.00;;;;;;5071302;28;20535;-69
2022/07/28 02:14:27;;;;;;;4.23;0.63;;;22.20;98.50;;;;;;5071338;28;20718;-71
2022/07/28 02:16:58;;;;;;;1.70;0.50;;;22.20;93.50;;;;;;5071367;28;20237;-70
2022/07/28 02:19:27;;;;;;;2.43;0.40;;;22.30;95.30;;;;;;5070833;28;20170;-70
2022/07/28 02:21:56;;;;;;;0.90;0.57;;;22.00;93.90;;;;;;5072189;28;20183;-70
2022/07/28 02:24:28;;;;;;;0.70;0.47;;;21.90;96.30;;;;;;5110723;28;20178;-71
2022/07/28 02:27:02;;;;;;;0.60;0.40;;;22.00;95.70;;;;;;5111466;28;20193;-72
2022/07/28 02:29:33;;;;;;;0.93;0.37;;;21.60;98.50;;;;;;5110460;28;20177;-71
2022/07/28 02:32:20;;;;;;;0.67;0.30;;;22.10;95.70;;;;;;5091155;28;20252;-71
2022/07/28 02:34:50;;;;;;;0.47;0.43;;;21.90;98.10;;;;;;5072426;28;20229;-72
2022/07/28 02:37:20;;;;;;;1.40;0.47;;;22.20;96.60;;;;;;5086724;28;20184;-71
2022/07/28 02:39:55;;;;;;;0.50;0.30;;;22.50;94.30;;;;;;5072064;28;20633;-68
2022/07/28 02:42:31;;;;;;;0.70;0.30;;;22.70;93.00;;;;;;5094572;28;20180;-72
2022/07/28 02:45:04;;;;;;;0.70;0.40;;;22.70;91.20;;;;;;5095227;28;20273;-69
2022/07/28 02:47:37;;;;;;;0.30;0.30;;;22.80;92.50;;;;;;5095118;28;20185;-71
2022/07/28 02:50:06;;;;;;;1.60;0.30;;;22.80;90.60;;;;;;5097349;28;20193;-69
2022/07/28 02:52:35;;;;;;;0.53;0.30;;;22.60;93.60;;;;;;5096882;28;20187;-70
2022/07/28 02:55:03;;;;;;;0.40;0.20;;;22.90;91.20;;;;;;5115225;28;20210;-71
2022/07/28 02:57:31;;;;;;;0.40;0.20;;;23.10;89.90;;;;;;5107044;28;20186;-69
2022/07/28 03:00:00;;;;;;;1.30;0.30;;;23.20;88.70;;;;;;5096076;28;20464;-69
2022/07/28 03:02:29;;;;;;;0.40;0.30;;;23.70;90.30;;;;;;5114958;28;20182;-71
2022/07/28 03:04:58;;;;;;;0.30;0.30;;;23.50;87.10;;;;;;5115069;28;20183;-68
2022/07/28 03:07:34;;;;;;;1.47;0.20;;;23.70;85.00;;;;;;5096650;28;20214;-69
2022/07/28 03:10:04;;;;;;;1.03;0.27;;;23.20;81.90;;;;;;5113065;28;20184;-71
2022/07/28 03:12:31;;;;;;;2.57;0.40;;;23.40;81.90;;;;;;5094502;28;20182;-69
2022/07/28 03:14:59;;;;;;;0.50;0.40;;;23.30;79.80;;;;;;5109619;28;20221;-70
2022/07/28 03:17:27;;;;;;;1.07;0.20;;;23.40;79.70;;;;;;5094580;28;20746;-72
2022/07/28 03:19:55;;;;;;;0.33;0.30;;;23.60;79.90;;;;;;5094917;28;20179;-70
2022/07/28 03:22:22;;;;;;;1.17;0.40;;;23.80;79.50;;;;;;5110634;28;20653;-69
2022/07/28 03:24:53;;;;;;;1.03;0.40;;;24.00;78.30;;;;;;5109020;28;20183;-71
2022/07/28 03:27:21;;;;;;;1.60;0.43;;;23.80;72.60;;;;;;5100784;28;20195;-71
2022/07/28 03:30:09;;;;;;;2.67;0.50;;;23.60;75.00;;;;;;5095170;28;20203;-66
2022/07/28 03:32:43;;;;;;;1.30;0.40;;;23.60;70.60;;;;;;5095403;28;20582;-66
2022/07/28 03:35:12;;;;;;;1.00;0.20;;;23.30;71.60;;;;;;5095356;28;20207;-71
2022/07/28 03:37:42;;;;;;;0.97;0.40;;;23.30;71.70;;;;;;5095364;28;20208;-66
2022/07/28 03:40:11;;;;;;;0.60;0.30;;;23.30;72.80;;;;;;5077515;28;20183;-66
2022/07/28 03:42:43;;;;;;;0.23;0.23;;;23.10;69.10;;;;;;5095545;28;20178;-69
2022/07/28 03:45:11;;;;;;;0.20;0.20;;;23.20;71.80;;;;;;5095272;28;20177;-67
2022/07/28 03:47:47;;;;;;;0.30;0.30;;;23.10;66.10;;;;;;5095264;28;20224;-67
2022/07/28 03:50:15;;;;;;;0.73;0.30;;;23.00;71.80;;;;;;5095272;28;20236;-67
2022/07/28 03:52:43;;;;;;;1.27;0.40;;;23.20;70.30;;;;;;5094920;28;20193;-69
2022/07/28 03:55:12;;;;;;;0.30;0.30;;;23.30;67.60;;;;;;5095297;28;20268;-68
2022/07/28 03:57:40;;;;;;;0.50;0.37;;;23.30;75.80;;;;;;5095274;28;20258;-66
2022/07/28 04:00:10;;;;;;;0.60;0.37;;;23.80;74.80;;;;;;5094901;28;20512;-71
2022/07/28 04:02:42;;;;;;;0.90;0.50;;;23.80;69.80;;;;;;5095098;28;20584;-68
2022/07/28 04:05:12;;;;;;;2.80;0.60;;;23.10;69.10;;;;;;5110585;28;20266;-66
2022/07/28 04:07:40;;;;;;;0.80;0.23;;;22.90;72.00;;;;;;5094979;28;20181;-73
2022/07/28 04:10:11;;;;;;;2.10;0.20;;;22.60;72.90;;;;;;5094946;28;20183;-67
2022/07/28 04:12:47;;;;;;;1.07;0.40;;;22.50;77.90;;;;;;5094881;28;20211;-67
2022/07/28 04:15:15;;;;;;;0.77;0.30;;;22.70;78.10;;;;;;5094765;28;20244;-67
2022/07/28 04:17:43;;;;;;;0.50;0.30;;;22.40;81.60;;;;;;5076770;28;20207;-68
2022/07/28 04:20:11;;;;;;;0.57;0.30;;;22.30;78.50;;;;;;5094801;28;20175;-66
2022/07/28 04:22:39;;;;;;;0.30;0.20;;;22.60;77.60;;;;;;5094778;28;20654;-67
2022/07/28 04:25:07;;;;;;;2.73;0.40;;;22.70;76.20;;;;;;5094577;28;20183;-67
2022/07/28 04:27:38;;;;;;;1.50;0.40;;;22.60;74.20;;;;;;5094750;28;20199;-71
2022/07/28 04:30:12;;;;;;;3.37;0.60;;;22.80;76.80;;;;;;5094401;28;20171;-72
2022/07/28 04:32:44;;;;;;;0.30;0.30;;;22.70;75.70;;;;;;5094398;28;20316;-71
2022/07/28 04:35:12;;;;;;;0.40;0.30;;;22.30;76.20;;;;;;5094304;28;20203;-67
2022/07/28 04:37:40;;;;;;;1.07;0.50;;;22.40;84.30;;;;;;5094585;28;20187;-73
2022/07/28 04:40:10;;;;;;;0.53;0.30;;;22.20;85.40;;;;;;5094355;28;20203;-71
2022/07/28 04:42:39;;;;;;;0.80;0.40;;;21.60;84.60;;;;;;5094241;28;20183;-74
2022/07/28 04:45:08;;;;;;;0.87;0.40;;;21.90;92.50;;;;;;5094012;28;20185;-71
2022/07/28 04:47:36;;;;;;;1.03;0.47;;;22.30;92.40;;;;;;5094341;28;20175;-69
2022/07/28 04:50:06;;;;;;;2.60;0.40;;;22.50;91.80;;;;;;5094142;28;20171;-73
2022/07/28 04:52:34;;;;;;;0.70;0.50;;;22.50;86.30;;;;;;5094353;28;20638;-66
2022/07/28 04:55:02;;;;;;;0.97;0.70;;;22.00;86.10;;;;;;5093833;28;20211;-71
2022/07/28 04:57:29;;;;;;;0.70;0.47;;;22.00;89.10;;;;;;5094269;28;20312;-73
2022/07/28 04:59:59;;;;;;;2.63;0.70;;;21.70;92.20;;;;;;5094039;28;20269;-72
2022/07/28 05:02:27;;;;;;;1.70;0.50;;;21.50;93.50;;;;;;5093953;28;20175;-68
2022/07/28 05:04:54;;;;;;;3.07;0.50;;;20.80;96.40;;;;;;5093241;28;20262;-70
2022/07/28 05:07:22;;;;;;;1.70;0.33;;;20.30;99.90;;;;;;5094070;28;20176;-73
2022/07/28 05:09:50;;;;;;;0.73;0.63;;;19.90;99.90;;;;;;5093958;28;20210;-72
2022/07/28 05:12:18;;;;;;;1.63;0.50;;;19.70;99.90;;;;;;5093738;28;20179;-70
2022/07/28 05:14:46;;;;;;;0.40;0.40;;;19.80;99.90;;;;;;5093812;28;20255;-71
2022/07/28 05:17:14;;;;;;;1.47;0.40;;;20.20;99.90;;;;;;5093679;28;20283;-74
2022/07/28 05:19:42;;;;;;;3.03;0.60;;;20.40;99.90;;;;;;5109184;28;20192;-73
2022/07/28 05:22:09;;;;;;;1.40;0.50;;;20.40;99.90;;;;;;5093677;28;20178;-72
2022/07/28 05:24:37;;;;;;;4.07;0.50;;;20.30;99.90;;;;;;5093412;28;20205;-72
2022/07/28 05:27:05;;;;;;;1.30;0.40;;;20.10;99.90;;;;;;5093611;28;20197;-74
2022/07/28 05:29:33;;;;;;;1.70;0.50;;;20.00;99.90;;;;;;5093440;28;20653;-73
2022/07/28 05:32:00;;;;;;;1.53;0.40;;;19.90;99.90;;;;;;5093106;28;20245;-73
2022/07/28 05:34:28;;;;;;;1.30;0.70;;;19.80;99.90;;;;;;5093390;28;20620;-72
2022/07/28 05:36:56;;;;;;;1.53;0.50;;;19.70;99.90;;;;;;5093134;28;20178;-72
2022/07/28 05:39:23;;;;;;;0.50;0.40;;;19.60;99.90;;;;;;5093424;28;20183;-72
2022/07/28 05:41:51;;;;;;;1.10;0.60;;;19.60;99.90;;;;;;5093295;28;20215;-73
2022/07/28 05:44:19;;;;;;;2.00;0.50;;;19.40;99.90;;;;;;5093115;28;20634;-72
2022/07/28 05:46:46;;;;;;;2.33;0.50;;;19.20;99.90;;;;;;5093141;28;20524;-72
2022/07/28 05:49:14;;;;;;;1.30;0.40;;;19.00;99.90;;;;;;5093025;28;20653;-70
2022/07/28 05:51:42;;;;;;;0.80;0.47;;;19.00;99.90;;;;;;5101505;28;20550;-70
2022/07/28 05:54:09;;;;;;;0.80;0.60;;;18.90;99.90;;;;;;5075745;28;20187;-71
2022/07/28 05:56:37;;;;;;;1.47;0.40;;;18.80;99.90;;;;;;5091050;28;20202;-72
2022/07/28 05:59:08;;;;;;;1.57;0.50;;;18.70;99.90;;;;;;5079238;28;20183;-72
2022/07/28 06:01:37;;;;;;;1.03;0.43;;;18.70;99.90;;;;;;5107327;28;20585;-71
2022/07/28 06:04:05;;;;;;;2.43;0.60;;;18.50;99.90;;;;;;5103082;28;20176;-71
2022/07/28 06:06:33;;;;;;;6.37;0.70;;;18.50;99.90;;;;;;5109963;28;20178;-71
2022/07/28 06:09:01;;;;;;;1.33;0.70;;;18.40;99.90;;;;;;5092792;28;20194;-71
2022/07/28 06:11:28;;;;;;;2.20;0.57;;;18.40;99.90;;;;;;5098630;28;20182;-69
2022/07/28 06:13:56;;;;;;;0.57;0.50;;;18.30;99.90;;;;;;5113171;28;20205;-72
2022/07/28 06:16:24;;;;;;;1.97;0.53;;;18.30;99.90;;;;;;5114801;28;20304;-72
2022/07/28 06:18:52;;;;;;;1.97;0.50;;;18.20;99.90;;;;;;5117038;28;20244;-69
2022/07/28 06:21:23;;;;;;;1.27;0.50;;;18.00;99.90;;;;;;5112286;28;20179;-70
2022/07/28 06:23:51;;;;;;;2.80;0.57;;;17.90;99.90;;;;;;5094737;28;20221;-71
2022/07/28 06:26:20;;;;;;;0.87;0.50;;;17.80;99.90;;;;;;5096374;28;20179;-71
2022/07/28 06:28:47;;;;;;;2.77;0.60;;;17.80;99.90;;;;;;5094947;28;20192;-72
2022/07/28 06:31:15;;;;;;;2.07;0.70;;;17.70;99.90;;;;;;5095127;28;20241;-71
2022/07/28 06:33:43;;;;;;;1.47;0.60;;;17.60;99.90;;;;;;5094599;28;20212;-70
2022/07/28 06:36:10;;;;;;;1.37;0.70;;;17.50;99.90;;;;;;5091305;28;20218;-71
2022/07/28 06:38:38;;;;;;;0.70;0.50;;;17.50;99.90;;;;;;5115444;28;20214;-69
2022/07/28 06:41:06;;;;;;;0.67;0.67;;;17.40;99.90;;;;;;5115660;28;20178;-71
2022/07/28 06:43:34;;;;;;;3.60;0.70;;;17.30;99.90;;;;;;5115405;28;20178;-72
2022/07/28 06:46:01;;;;;;;1.47;0.73;;;17.30;99.90;;;;;;5101703;28;20191;-69
2022/07/28 06:48:29;;;;;;;1.70;0.67;;;17.30;99.90;;;;;;5094847;28;20182;-68
2022/07/28 06:50:58;;;;;;;1.67;0.67;;;17.20;99.90;;;;;;5094902;28;20187;-68
2022/07/28 06:53:26;;;;;;;1.00;0.63;;;17.20;99.90;;;;;;5094787;28;20187;-69
2022/07/28 06:55:55;;;;;;;4.73;1.37;;;17.20;99.90;;;;;;5106505;28;20244;-68
2022/07/28 06:58:22;;;;;;;0.80;0.70;;;17.20;99.90;;;;;;5112551;28;20190;-68
2022/07/28 07:00:50;;;;;;;1.17;0.70;;;17.10;99.90;;;;;;5093177;28;20179;-70
2022/07/28 07:03:18;;;;;;;1.47;0.63;;;17.10;99.90;;;;;;5095490;28;20179;-71
2022/07/28 07:05:45;;;;;;;1.57;0.87;;;17.10;99.90;;;;;;5097004;28;20590;-69
2022/07/28 07:08:13;;;;;;;1.50;0.83;;;17.00;99.90;;;;;;5110488;28;20549;-69
2022/07/28 07:10:41;;;;;;;1.37;0.83;;;17.00;99.90;;;;;;5110251;28;20251;-70
2022/07/28 07:13:09;;;;;;;4.10;0.90;;;16.90;99.90;;;;;;5094514;28;20186;-68
2022/07/28 07:15:36;;;;;;;1.90;0.97;;;16.80;99.90;;;;;;5104279;28;20563;-68
2022/07/28 07:18:04;;;;;;;2.03;0.87;;;16.80;99.90;;;;;;5114492;28;20537;-69
2022/07/28 07:20:32;;;;;;;3.43;0.90;;;16.70;99.90;;;;;;5110448;28;20253;-71
2022/07/28 07:23:00;;;;;;;4.43;0.90;;;16.70;99.90;;;;;;5094629;28;20258;-69
2022/07/28 07:25:27;;;;;;;1.17;1.00;;;16.60;99.90;;;;;;5120656;28;20235;-69
2022/07/28 07:27:55;;;;;;;1.93;1.00;;;16.50;99.90;;;;;;5100552;28;20960;-72
2022/07/28 07:30:23;;;;;;;0.67;0.67;;;16.40;99.90;;;;;;5092447;28;20178;-71
2022/07/28 07:32:51;;;;;;;4.80;1.00;;;16.40;99.90;;;;;;5111369;28;20208;-69
2022/07/28 07:35:18;;;;;;;1.40;1.07;;;16.30;99.90;;;;;;5094062;28;20214;-69
2022/07/28 07:37:46;;;;;;;1.77;0.87;;;16.30;99.90;;;;;;5107410;28;20156;-70
2022/07/28 07:40:14;;;;;;;2.90;1.07;;;16.20;99.90;;;;;;5100243;28;20185;-69
2022/07/28 07:42:42;;;;;;;3.90;1.10;;;16.10;99.90;;;;;;5108727;28;20187;-68
2022/07/28 07:45:10;;;;;;;0.90;0.80;;;16.10;99.90;;;;;;5093852;28;20236;-71
2022/07/28 07:47:38;;;;;;;1.77;1.00;;;16.10;99.90;;;;;;5093763;28;20190;-72
2022/07/28 07:50:06;;;;;;;4.83;1.40;;;16.00;99.90;;;;;;5093744;28;20232;-68
2022/07/28 07:52:33;;;;;;;3.97;1.27;;;16.00;99.90;;;;;;5093674;28;20573;-71
2022/07/28 07:55:02;;;;;;;0.93;0.83;;;15.90;99.90;;;;;;5093682;28;20214;-70
2022/07/28 07:57:30;;;;;;;3.33;1.00;;;15.90;99.90;;;;;;5092318;28;20187;-68
2022/07/28 07:59:58;;;;;;;3.07;1.03;;;15.80;99.90;;;;;;5093525;28;20181;-67
2022/07/28 08:02:25;;;;;;;1.37;0.90;;;15.80;99.90;;;;;;5093665;28;20183;-71
2022/07/28 08:04:54;;;;;;;4.53;1.00;;;15.70;99.90;;;;;;5093443;28;20175;-68
2022/07/28 08:07:22;;;;;;;2.63;0.90;;;15.70;99.90;;;;;;5093586;28;20536;-70
2022/07/28 08:09:49;;;;;;;1.13;0.87;;;15.60;99.90;;;;;;5093284;28;20210;-69
2022/07/28 08:12:17;;;;;;;1.07;0.70;;;15.60;99.90;;;;;;5093407;28;20208;-70
2022/07/28 08:14:45;;;;;;;1.00;0.73;;;15.60;99.90;;;;;;5093376;28;20217;-69
2022/07/28 08:17:12;;;;;;;2.17;1.10;;;15.50;99.90;;;;;;5093462;28;20176;-69
2022/07/28 08:19:40;;;;;;;1.20;0.70;;;15.50;99.90;;;;;;5093198;28;20222;-69
2022/07/28 08:22:09;;;;;;;1.53;0.80;;;15.50;99.90;;;;;;5092046;28;20269;-68
2022/07/28 08:24:37;;;;;;;3.97;1.63;;;15.40;99.90;;;;;;5093237;28;20183;-68
2022/07/28 08:27:05;;;;;;;1.40;1.10;;;15.40;99.90;;;;;;5093103;28;20244;-70
2022/07/28 08:29:33;;;;;;;1.30;0.80;;;15.40;99.90;;;;;;5093261;28;20257;-69
2022/07/28 08:32:03;;;;;;;0.70;0.70;;;15.50;99.90;;;;;;5093005;28;20265;-68
2022/07/28 08:34:32;;;;;;;1.93;0.60;;;15.60;99.90;;;;;;5092951;28;20195;-69
2022/07/28 08:37:01;;;;;;;1.23;0.80;;;15.60;99.90;;;;;;5087746;28;20190;-69
2022/07/28 08:39:30;;;;;;;1.70;0.77;;;15.60;99.90;;;;;;5090875;28;20182;-69
2022/07/28 08:42:10;;;;;;;0.83;0.70;;;15.60;99.90;;;;;;5103064;28;20682;-69
2022/07/28 08:44:50;;;;;;;0.77;0.70;;;15.60;99.90;;;;;;5113219;28;20181;-69
2022/07/28 08:47:20;;;;;;;0.50;0.50;;;15.60;99.90;;;;;;5095004;28;20564;-69
2022/07/28 08:49:49;;;;;;;0.53;0.50;;;15.60;99.90;;;;;;5112884;28;20198;-70
2022/07/28 08:52:20;;;;;;;0.63;0.50;;;15.60;99.90;;;;;;5092900;28;20252;-69
2022/07/28 08:54:49;;;;;;;1.60;0.60;;;15.60;99.90;;;;;;5092809;28;20708;-69
2022/07/28 08:57:39;;;;;;;1.00;0.67;;;15.60;99.90;;;;;;5098771;28;20190;-70
2022/07/28 09:00:08;;;;;;;1.20;0.70;;;15.70;99.90;;;;;;5112981;28;20538;-69
2022/07/28 09:02:41;;;;;;;1.20;1.00;;;15.70;99.90;;;;;;5100835;28;20183;-70
2022/07/28 09:05:10;;;;;;;1.00;0.77;;;15.60;99.90;;;;;;5109355;28;20267;-69
2022/07/28 09:07:43;;;;;;;1.80;0.80;;;15.60;99.90;;;;;;5111013;28;20194;-70
2022/07/28 09:10:12;;;;;;;2.10;1.13;;;15.60;99.90;;;;;;5096620;28;20190;-70
2022/07/28 09:12:40;;;;;;;1.10;0.70;;;15.60;99.90;;;;;;5104835;28;20182;-70
2022/07/28 09:15:12;;;;;;;2.77;0.80;;;15.50;99.90;;;;;;5113296;28;20286;-68
2022/07/28 09:17:42;;;;;;;1.47;0.70;;;15.50;99.90;;;;;;5093776;28;20202;-68
2022/07/28 09:20:11;;;;;;;0.57;0.57;;;15.50;99.90;;;;;;5093643;28;20525;-71
2022/07/28 09:23:01;;;;;;;0.70;0.50;;;15.40;99.90;;;;;;5094361;28;20178;-72
2022/07/28 09:25:30;;;;;;;0.80;0.67;;;15.40;99.90;;;;;;5109103;28;20186;-71
2022/07/28 09:28:16;;;;;;;0.70;0.70;;;15.30;99.90;;;;;;5093751;28;20197;-72
2022/07/28 09:30:48;;;;;;;4.07;0.70;;;15.20;99.90;;;;;;5094363;28;20217;-70
2022/07/28 09:33:31;;;;;;;2.73;0.97;;;15.10;99.90;;;;;;5113924;28;20260;-72
2022/07/28 09:35:59;;;;;;;2.03;0.83;;;15.00;99.90;;;;;;5113891;28;20209;-70
2022/07/28 09:38:40;;;;;;;0.60;0.60;;;14.90;99.90;;;;;;5113383;28;20201;-70
2022/07/28 09:41:08;;;;;;;1.33;0.60;;;14.90;99.90;;;;;;5091484;28;20236;-71
2022/07/28 09:43:43;;;;;;;0.40;0.40;;;14.80;99.90;;;;;;5095194;28;20539;-70
2022/07/28 09:46:23;;;;;;;1.67;0.83;;;14.70;99.90;;;;;;5113516;28;20234;-69
2022/07/28 09:48:53;;;;;;;1.20;0.90;;;14.60;99.90;;;;;;5113302;28;20177;-70
2022/07/28 09:51:34;;;;;;;1.50;1.00;;;14.50;99.90;;;;;;5107492;28;20187;-71
2022/07/28 09:54:13;;;;;;;2.20;1.37;;;14.40;99.90;;;;;;5093329;28;20170;-70
2022/07/28 09:56:43;;;;;;;1.70;1.00;;;14.20;99.90;;;;;;5108939;28;20211;-71
2022/07/28 09:59:12;;;;;;;1.67;1.13;;;14.10;99.90;;;;;;5093005;28;20205;-70
2022/07/28 10:01:53;;;;;;;1.77;1.00;;;14.10;99.90;;;;;;5101224;28;20187;-71
2022/07/28 10:04:32;;;;;;;4.63;1.13;;;14.00;99.90;;;;;;5095299;28;20652;-71
2022/07/28 10:07:12;;;;;;;1.63;1.17;;;13.90;99.90;;;;;;5113370;28;20663;-71
2022/07/28 10:09:41;;;;;;;1.67;1.17;;;13.80;99.90;;;;;;5113392;28;20210;-70
2022/07/28 10:12:18;;;;;;;1.43;1.13;;;13.80;99.90;;;;;;5096793;28;20264;-70
2022/07/28 10:14:47;;;;;;;1.23;1.00;;;13.70;99.90;;;;;;5092889;28;20307;-70
2022/07/28 10:17:33;;;;;;;3.77;1.27;;;13.70;99.90;;;;;;5092945;28;20662;-70
2022/07/28 10:20:04;;;;;;;2.37;1.20;;;13.60;99.90;;;;;;5092993;28;20178;-70
2022/07/28 10:22:36;;;;;;;2.80;1.30;;;13.60;99.90;;;;;;5111929;28;20190;-71
2022/07/28 10:25:10;;;;;;;4.27;2.03;;;13.50;99.90;;;;;;5113247;28;20362;-70
2022/07/28 10:27:42;;;;;;;5.50;1.70;;;13.50;99.90;;;;;;5113238;28;20254;-70
2022/07/28 10:30:11;;;;;;;3.87;1.70;;;13.50;99.90;;;;;;5113296;28;20704;-71
2022/07/28 10:32:45;;;;;;;2.00;1.07;;;13.60;99.90;;;;;;5092818;28;20224;-71
2022/07/28 10:35:15;;;;;;;2.00;1.10;;;13.70;99.90;;;;;;5101438;28;20208;-70
2022/07/28 10:38:06;;;;;;;1.83;0.90;;;13.80;99.90;;;;;;5078071;28;20188;-70
2022/07/28 10:40:45;;;;;;;1.33;0.97;;;13.90;99.90;;;;;;5096067;28;20276;-70
2022/07/28 10:43:13;;;;;;;1.57;0.87;;;14.00;99.90;;;;;;5074426;28;20235;-70
2022/07/28 10:45:41;;;;;;;1.30;0.97;;;14.00;99.90;;;;;;5092545;28;20186;-71
2022/07/28 10:48:08;;;;;;;1.20;1.10;;;14.00;99.90;;;;;;5092857;28;20183;-70
2022/07/28 10:50:36;;;;;;;1.43;1.10;;;14.00;99.90;;;;;;5094663;28;20182;-71
2022/07/28 10:53:05;;;;;;;0.73;0.73;;;14.00;99.90;;;;;;5112911;28;20173;-71
2022/07/28 10:55:55;;;;;;;0.97;0.87;;;14.10;99.90;;;;;;5094378;28;20203;-70
2022/07/28 10:58:37;;;;;;;1.33;0.80;;;14.10;99.90;;;;;;5094652;28;20178;-71
2022/07/28 11:01:05;;;;;;;1.57;0.80;;;14.10;99.90;;;;;;5067123;28;20653;-70
2022/07/28 11:03:46;;;;;;;1.20;0.77;;;14.10;99.90;;;;;;5085684;28;20238;-70
2022/07/28 11:06:41;;;;;;;1.17;0.90;;;14.10;99.90;;;;;;5116552;28;20248;-70
2022/07/28 11:09:17;;;;;;;0.70;0.70;;;14.10;99.90;;;;;;5082547;28;20184;-69
2022/07/28 11:11:51;;;;;;;2.97;1.03;;;14.00;99.90;;;;;;5116564;28;20181;-69
2022/07/28 11:14:34;;;;;;;1.67;0.60;;;14.00;99.90;;;;;;5116542;28;20223;-71
2022/07/28 11:17:01;;;;;;;1.43;0.60;;;14.00;99.90;;;;;;5095764;28;20188;-69
2022/07/28 11:19:46;;;;;;;0.93;0.70;;;13.90;99.90;;;;;;5077599;28;20594;-69
2022/07/28 11:22:38;;;;;;;3.13;0.87;;;13.90;99.90;;;;;;5077944;28;20187;-69
2022/07/28 11:25:04;;;;;;;0.80;0.70;;;13.90;99.90;;;;;;5096425;28;20359;-68
2022/07/28 11:30:10;;;;;;;2.00;0.90;;;13.80;99.90;;;;;;5095817;28;20178;-70
2022/07/28 11:32:53;;;;;;;2.77;1.50;;;13.80;99.90;;;;;;5095761;28;20237;-69
2022/07/28 11:35:25;;;;;;;1.00;1.00;;;13.80;99.90;;;;;;5114877;28;20217;-69
2022/07/28 11:38:02;;;;;;;1.20;1.10;;;13.80;99.90;;;;;;5116051;28;20177;-69
2022/07/28 11:40:40;;;;;;;1.77;1.00;;;13.80;99.90;;;;;;5116293;28;20173;-69
2022/07/28 11:43:25;;;;;;;1.30;0.93;;;13.80;99.90;;;;;;5097805;28;20656;-70
2022/07/28 11:46:02;;;;;;;2.50;1.13;;;13.70;99.90;;;;;;5116231;28;20172;-70
2022/07/28 11:48:31;;;;;;;0.90;0.87;;;13.70;99.90;;;;;;5116175;28;20587;-70
2022/07/28 11:51:05;;;;;;;1.10;0.80;;;13.70;99.90;;;;;;5108414;28;20186;-70
2022/07/28 11:53:51;;;;;;;2.40;0.70;;;13.60;99.90;;;;;;5095778;28;20177;-71
2022/07/28 11:56:36;;;;;;;0.73;0.70;;;13.70;99.90;;;;;;5095556;28;20204;-69
2022/07/28 11:59:09;;;;;;;1.23;0.67;;;13.80;99.90;;;;;;5095425;28;20181;-71
2022/07/28 12:01:37;;;;;;;1.30;0.80;;;13.90;99.90;;;;;;5095483;28;20181;-71
2022/07/28 12:04:17;;;;;;;1.37;0.60;;;13.90;99.90;;;;;;5095310;28;20217;-69
2022/07/28 12:06:45;;;;;;;1.80;0.87;;;13.90;99.90;;;;;;5097893;28;20535;-69
2022/07/28 12:09:13;;;;;;;0.93;0.70;;;13.90;99.90;;;;;;5115522;28;20648;-71
2022/07/28 12:11:41;;;;;;;2.23;0.80;;;14.00;99.90;;;;;;5115604;28;20178;-71
2022/07/28 12:14:11;;;;;;;0.77;0.70;;;13.90;99.90;;;;;;5090268;28;20277;-70
2022/07/28 12:16:41;;;;;;;2.10;0.90;;;13.90;99.90;;;;;;5094914;28;20289;-70
2022/07/28 12:19:09;;;;;;;0.80;0.70;;;13.90;99.90;;;;;;5076783;28;20255;-70
2022/07/28 12:21:44;;;;;;;1.90;0.83;;;13.90;99.90;;;;;;5094867;28;20215;-70
2022/07/28 12:24:33;;;;;;;1.23;0.70;;;13.90;99.90;;;;;;5094745;28;20180;-70
2022/07/28 12:27:00;;;;;;;2.33;0.83;;;13.90;99.90;;;;;;5097933;28;20677;-70
2022/07/28 12:29:31;;;;;;;0.83;0.80;;;13.90;99.90;;;;;;5113334;28;20177;-70
2022/07/28 12:32:03;;;;;;;1.37;0.90;;;13.90;99.90;;;;;;5115002;28;20224;-70
2022/07/28 12:34:33;;;;;;;2.33;1.00;;;13.80;99.90;;;;;;5096681;28;20575;-70
2022/07/28 12:37:03;;;;;;;3.23;1.13;;;13.80;99.90;;;;;;5115189;28;20230;-69
2022/07/28 12:39:38;;;;;;;1.37;1.00;;;13.80;99.90;;;;;;5097059;28;20245;-70
2022/07/28 12:42:10;;;;;;;1.10;0.87;;;13.80;99.90;;;;;;5109721;28;20230;-70
2022/07/28 12:44:40;;;;;;;4.63;0.87;;;13.70;99.90;;;;;;5076215;28;20189;-70
2022/07/28 12:47:10;;;;;;;2.03;0.70;;;13.70;99.90;;;;;;5112792;28;20230;-71
2022/07/28 12:49:39;;;;;;;1.70;1.00;;;13.70;99.90;;;;;;5115038;28;20677;-69
2022/07/28 12:52:16;;;;;;;0.80;0.67;;;13.70;99.90;;;;;;5114939;28;20174;-71
2022/07/28 12:54:44;;;;;;;0.80;0.67;;;13.70;99.90;;;;;;5096467;28;20295;-71
2022/07/28 12:57:12;;;;;;;1.03;0.90;;;13.70;99.90;;;;;;5114870;28;20728;-70
2022/07/28 12:59:40;;;;;;;0.83;0.70;;;13.70;99.90;;;;;;5114557;28;20173;-70
2022/07/28 13:02:08;;;;;;;1.07;0.97;;;13.70;99.90;;;;;;5113775;28;20197;-70
2022/07/28 13:04:49;;;;;;;0.83;0.80;;;13.70;99.90;;;;;;5100086;28;20185;-70
2022/07/28 13:07:22;;;;;;;0.80;0.80;;;13.60;99.90;;;;;;5094294;28;20177;-70
2022/07/28 13:10:10;;;;;;;0.73;0.60;;;13.60;99.90;;;;;;5093819;28;20208;-69
2022/07/28 13:12:38;;;;;;;0.83;0.60;;;13.60;99.90;;;;;;5093983;28;20190;-70
2022/07/28 13:15:15;;;;;;;0.97;0.60;;;13.60;99.90;;;;;;5094014;28;20683;-69